Malone, FL

12:38 AM CST on January 31, 2015 (GMT -0600)
06016RM | Change Station
CLOSE
Current Station
Personal Weather Station
Location: Malone, FL
Elevation: 161 ft
Nearby Weather Stations

Elev 161 ft 30.95 °N, 85.16 °W | Updated 3 minutes ago

Partly Cloudy
Partly Cloudy
41.7 °F
Feels Like 42 °F
N
0.0
Wind Variable Wind from East

Today
High -- | Low -- °F
--% Chance of Precip.
Yesterday
High -- | Low -- °F
Precip. -- in
6:33 AM 5:15 PM
Waxing Gibbous, 88% visible
Pressure 30.31 in
Visibility 10.0 miles
Clouds Clear
Windchill 42 °F
Dew Point 28 °F
Humidity 58%
Rainfall 0.00 in
Snow Depth Not available.
UV 0 out of 12
Pollen 6.40 out of 12
Air Quality Not available.
Flu Activity Not available.
METAR KMAI 310553Z AUTO 02004KT 10SM CLR 07/M02 A3031 RMK AO2 SLP264 60000 T00671017 10117 20067 401670067 51001

More Conditions Fewer Conditions

Pressure 30.31 in
Visibility 10.0 miles
Clouds Clear
Windchill 42 °F
Dew Point 28 °F
Humidity 58%
Rainfall 0.00 in
Snow Depth Not available.
UV 0 out of 12
Pollen 6.40 out of 12
Air Quality Not available.
Flu Activity Not available.
METAR KMAI 310553Z AUTO 02004KT 10SM CLR 07/M02 A3031 RMK AO2 SLP264 60000 T00671017 10117 20067 401670067 51001

More Conditions Fewer Conditions

10-Day Weather Forecast

Almanac

Astronomy

Jan. 31, 2015 Rise Set
Actual Time
Civil Twilight
Nautical Twilight
Astronomical Twilight
Moon
Length of Visible Light
Length of Day
Tomorrow will be .
, % of the Moon is Illuminated

Today's Extremes

State Highs State Lows

Community

WunderPhotos

Upload Photos

1,792,014 photos uploaded!

WunderBlogs® & News

Nearby

Air Quality

  Air Quality AQ Index Pollutant
Not available.

Snow Depth

Station Depth Elevation

Earthquake Activity

City Distance Mag. Time & Date
Minimum magnitude displayed is 2.5.

Coastal Water Temperatures

Place Temperature

Nearby Weather Stations